sensor_id;sensor_type;location;lat;lon;timestamp;P1;durP1;ratioP1;P2;durP2;ratioP2
56239;SDS011;42154;51.992;5.896;2023-02-03T00:02:15;13.73;;;3.72;;
56239;SDS011;42154;51.992;5.896;2023-02-03T00:04:41;13.75;;;3.80;;
56239;SDS011;42154;51.992;5.896;2023-02-03T00:07:08;10.45;;;3.70;;
56239;SDS011;42154;51.992;5.896;2023-02-03T00:09:36;17.85;;;4.22;;
56239;SDS011;42154;51.992;5.896;2023-02-03T00:12:02;12.40;;;3.20;;
56239;SDS011;42154;51.992;5.896;2023-02-03T00:14:28;14.90;;;3.35;;
56239;SDS011;42154;51.992;5.896;2023-02-03T00:16:53;10.88;;;3.83;;
56239;SDS011;42154;51.992;5.896;2023-02-03T00:19:19;12.13;;;3.33;;
56239;SDS011;42154;51.992;5.896;2023-02-03T00:21:45;13.90;;;3.22;;
56239;SDS011;42154;51.992;5.896;2023-02-03T00:24:11;18.88;;;4.45;;
56239;SDS011;42154;51.992;5.896;2023-02-03T00:26:40;11.20;;;3.38;;
56239;SDS011;42154;51.992;5.896;2023-02-03T00:29:07;14.45;;;3.47;;
56239;SDS011;42154;51.992;5.896;2023-02-03T00:31:33;14.85;;;3.58;;
56239;SDS011;42154;51.992;5.896;2023-02-03T00:33:59;13.70;;;3.15;;
56239;SDS011;42154;51.992;5.896;2023-02-03T00:36:25;14.43;;;3.58;;
56239;SDS011;42154;51.992;5.896;2023-02-03T00:38:52;20.63;;;3.40;;
56239;SDS011;42154;51.992;5.896;2023-02-03T00:41:18;14.52;;;3.83;;
56239;SDS011;42154;51.992;5.896;2023-02-03T00:43:45;13.45;;;3.72;;
56239;SDS011;42154;51.992;5.896;2023-02-03T00:46:12;16.60;;;3.47;;
56239;SDS011;42154;51.992;5.896;2023-02-03T00:48:39;14.88;;;3.55;;
56239;SDS011;42154;51.992;5.896;2023-02-03T00:51:05;13.00;;;3.30;;
56239;SDS011;42154;51.992;5.896;2023-02-03T00:53:31;14.32;;;3.47;;
56239;SDS011;42154;51.992;5.896;2023-02-03T00:55:57;12.50;;;3.22;;
56239;SDS011;42154;51.992;5.896;2023-02-03T00:58:23;14.25;;;3.92;;
56239;SDS011;42154;51.992;5.896;2023-02-03T01:00:48;14.73;;;3.75;;
56239;SDS011;42154;51.992;5.896;2023-02-03T01:03:15;13.38;;;4.55;;
56239;SDS011;42154;51.992;5.896;2023-02-03T01:05:40;14.43;;;3.40;;
56239;SDS011;42154;51.992;5.896;2023-02-03T01:08:06;12.30;;;3.88;;
56239;SDS011;42154;51.992;5.896;2023-02-03T01:10:32;21.65;;;4.18;;
56239;SDS011;42154;51.992;5.896;2023-02-03T01:12:58;16.55;;;3.92;;
56239;SDS011;42154;51.992;5.896;2023-02-03T01:15:26;8.77;;;3.35;;
56239;SDS011;42154;51.992;5.896;2023-02-03T01:17:52;13.13;;;3.22;;
56239;SDS011;42154;51.992;5.896;2023-02-03T01:20:17;17.95;;;4.65;;
56239;SDS011;42154;51.992;5.896;2023-02-03T01:22:45;14.88;;;3.75;;
56239;SDS011;42154;51.992;5.896;2023-02-03T01:25:12;10.15;;;3.60;;
56239;SDS011;42154;51.992;5.896;2023-02-03T01:27:38;18.13;;;3.63;;
56239;SDS011;42154;51.992;5.896;2023-02-03T01:30:03;15.18;;;3.72;;
56239;SDS011;42154;51.992;5.896;2023-02-03T01:32:29;14.27;;;3.42;;
56239;SDS011;42154;51.992;5.896;2023-02-03T01:34:55;15.73;;;3.95;;
56239;SDS011;42154;51.992;5.896;2023-02-03T01:37:21;11.88;;;3.75;;
56239;SDS011;42154;51.992;5.896;2023-02-03T01:39:47;10.20;;;3.00;;
56239;SDS011;42154;51.992;5.896;2023-02-03T01:42:13;14.45;;;4.00;;
56239;SDS011;42154;51.992;5.896;2023-02-03T01:44:46;7.03;;;2.97;;
56239;SDS011;42154;51.992;5.896;2023-02-03T01:47:30;12.70;;;3.33;;
56239;SDS011;42154;51.992;5.896;2023-02-03T01:52:29;11.50;;;3.08;;
56239;SDS011;42154;51.992;5.896;2023-02-03T01:54:56;13.30;;;3.58;;
56239;SDS011;42154;51.992;5.896;2023-02-03T01:57:32;11.70;;;2.63;;
56239;SDS011;42154;51.992;5.896;2023-02-03T02:00:00;10.00;;;2.80;;
56239;SDS011;42154;51.992;5.896;2023-02-03T02:02:38;13.60;;;3.35;;
56239;SDS011;42154;51.992;5.896;2023-02-03T02:05:09;16.55;;;3.65;;
56239;SDS011;42154;51.992;5.896;2023-02-03T02:07:42;16.80;;;3.55;;
56239;SDS011;42154;51.992;5.896;2023-02-03T02:10:09;16.95;;;3.40;;
56239;SDS011;42154;51.992;5.896;2023-02-03T02:12:35;9.32;;;3.00;;
56239;SDS011;42154;51.992;5.896;2023-02-03T02:15:01;10.65;;;2.85;;
56239;SDS011;42154;51.992;5.896;2023-02-03T02:17:37;9.88;;;3.03;;
56239;SDS011;42154;51.992;5.896;2023-02-03T02:28:42;9.57;;;2.95;;
56239;SDS011;42154;51.992;5.896;2023-02-03T02:31:32;14.57;;;3.00;;
56239;SDS011;42154;51.992;5.896;2023-02-03T02:36:52;9.02;;;3.33;;
56239;SDS011;42154;51.992;5.896;2023-02-03T02:39:37;9.05;;;2.50;;
56239;SDS011;42154;51.992;5.896;2023-02-03T02:42:14;9.15;;;2.60;;
56239;SDS011;42154;51.992;5.896;2023-02-03T02:45:03;9.80;;;2.65;;
56239;SDS011;42154;51.992;5.896;2023-02-03T02:47:36;11.23;;;3.13;;
56239;SDS011;42154;51.992;5.896;2023-02-03T02:50:13;14.90;;;3.55;;
56239;SDS011;42154;51.992;5.896;2023-02-03T02:52:44;9.85;;;2.78;;
56239;SDS011;42154;51.992;5.896;2023-02-03T02:55:14;9.05;;;2.50;;
56239;SDS011;42154;51.992;5.896;2023-02-03T02:57:49;9.73;;;2.63;;
56239;SDS011;42154;51.992;5.896;2023-02-03T03:00:19;9.98;;;2.67;;
56239;SDS011;42154;51.992;5.896;2023-02-03T03:02:45;8.73;;;2.60;;
56239;SDS011;42154;51.992;5.896;2023-02-03T03:05:11;10.70;;;2.70;;
56239;SDS011;42154;51.992;5.896;2023-02-03T03:07:45;9.20;;;2.75;;
56239;SDS011;42154;51.992;5.896;2023-02-03T03:10:15;8.32;;;2.08;;
56239;SDS011;42154;51.992;5.896;2023-02-03T03:12:48;14.20;;;2.38;;
56239;SDS011;42154;51.992;5.896;2023-02-03T03:15:19;10.23;;;2.22;;
56239;SDS011;42154;51.992;5.896;2023-02-03T03:20:23;10.30;;;2.42;;
56239;SDS011;42154;51.992;5.896;2023-02-03T03:22:58;9.98;;;2.58;;
56239;SDS011;42154;51.992;5.896;2023-02-03T03:30:33;9.80;;;2.53;;
56239;SDS011;42154;51.992;5.896;2023-02-03T03:33:01;13.27;;;2.30;;
56239;SDS011;42154;51.992;5.896;2023-02-03T03:35:30;10.57;;;2.75;;
56239;SDS011;42154;51.992;5.896;2023-02-03T03:38:06;13.43;;;3.03;;
56239;SDS011;42154;51.992;5.896;2023-02-03T03:40:38;10.18;;;2.22;;
56239;SDS011;42154;51.992;5.896;2023-02-03T03:43:21;10.48;;;3.13;;
56239;SDS011;42154;51.992;5.896;2023-02-03T03:45:53;14.63;;;3.05;;
56239;SDS011;42154;51.992;5.896;2023-02-03T03:51:04;9.10;;;2.25;;
56239;SDS011;42154;51.992;5.896;2023-02-03T03:53:41;10.90;;;2.70;;
56239;SDS011;42154;51.992;5.896;2023-02-03T03:56:10;10.13;;;2.60;;
56239;SDS011;42154;51.992;5.896;2023-02-03T03:58:40;11.20;;;2.67;;
56239;SDS011;42154;51.992;5.896;2023-02-03T04:01:09;9.45;;;2.25;;
56239;SDS011;42154;51.992;5.896;2023-02-03T04:03:37;11.38;;;2.58;;
56239;SDS011;42154;51.992;5.896;2023-02-03T04:06:07;11.95;;;3.13;;
56239;SDS011;42154;51.992;5.896;2023-02-03T04:08:33;16.23;;;3.65;;
56239;SDS011;42154;51.992;5.896;2023-02-03T04:10:58;13.80;;;2.83;;
56239;SDS011;42154;51.992;5.896;2023-02-03T04:13:24;9.32;;;2.90;;
56239;SDS011;42154;51.992;5.896;2023-02-03T04:15:50;7.60;;;2.83;;
56239;SDS011;42154;51.992;5.896;2023-02-03T04:18:16;8.68;;;2.63;;
56239;SDS011;42154;51.992;5.896;2023-02-03T04:20:41;10.65;;;3.47;;
56239;SDS011;42154;51.992;5.896;2023-02-03T04:23:07;9.20;;;2.17;;
56239;SDS011;42154;51.992;5.896;2023-02-03T04:25:34;10.82;;;3.70;;
56239;SDS011;42154;51.992;5.896;2023-02-03T04:27:59;9.70;;;2.55;;
56239;SDS011;42154;51.992;5.896;2023-02-03T04:30:26;15.20;;;3.40;;
56239;SDS011;42154;51.992;5.896;2023-02-03T04:32:51;11.45;;;2.58;;
56239;SDS011;42154;51.992;5.896;2023-02-03T04:35:18;9.05;;;2.63;;
56239;SDS011;42154;51.992;5.896;2023-02-03T04:37:44;9.10;;;2.35;;
56239;SDS011;42154;51.992;5.896;2023-02-03T04:40:10;10.63;;;2.63;;
56239;SDS011;42154;51.992;5.896;2023-02-03T04:42:37;7.18;;;2.10;;
56239;SDS011;42154;51.992;5.896;2023-02-03T04:45:04;9.95;;;3.05;;
56239;SDS011;42154;51.992;5.896;2023-02-03T04:47:30;10.75;;;2.40;;
56239;SDS011;42154;51.992;5.896;2023-02-03T04:49:56;16.20;;;2.80;;
56239;SDS011;42154;51.992;5.896;2023-02-03T04:52:22;12.52;;;2.55;;
56239;SDS011;42154;51.992;5.896;2023-02-03T04:54:47;6.97;;;2.65;;
56239;SDS011;42154;51.992;5.896;2023-02-03T04:57:13;16.48;;;3.70;;
56239;SDS011;42154;51.992;5.896;2023-02-03T04:59:39;8.95;;;2.47;;
56239;SDS011;42154;51.992;5.896;2023-02-03T05:02:05;11.43;;;2.45;;
56239;SDS011;42154;51.992;5.896;2023-02-03T05:04:32;10.52;;;2.83;;
56239;SDS011;42154;51.992;5.896;2023-02-03T05:06:58;7.93;;;2.42;;
56239;SDS011;42154;51.992;5.896;2023-02-03T05:09:24;14.68;;;2.45;;
56239;SDS011;42154;51.992;5.896;2023-02-03T05:11:50;11.93;;;2.60;;
56239;SDS011;42154;51.992;5.896;2023-02-03T05:14:16;9.70;;;2.08;;
56239;SDS011;42154;51.992;5.896;2023-02-03T05:16:42;9.43;;;2.53;;
56239;SDS011;42154;51.992;5.896;2023-02-03T05:19:08;7.65;;;2.10;;
56239;SDS011;42154;51.992;5.896;2023-02-03T05:21:34;9.00;;;2.33;;
56239;SDS011;42154;51.992;5.896;2023-02-03T05:24:00;11.50;;;3.15;;
56239;SDS011;42154;51.992;5.896;2023-02-03T05:26:27;11.05;;;2.60;;
56239;SDS011;42154;51.992;5.896;2023-02-03T05:28:53;11.75;;;2.83;;
56239;SDS011;42154;51.992;5.896;2023-02-03T05:31:19;9.20;;;2.38;;
56239;SDS011;42154;51.992;5.896;2023-02-03T05:33:44;11.15;;;2.47;;
56239;SDS011;42154;51.992;5.896;2023-02-03T05:36:10;14.70;;;2.90;;
56239;SDS011;42154;51.992;5.896;2023-02-03T05:38:36;12.52;;;2.47;;
56239;SDS011;42154;51.992;5.896;2023-02-03T05:41:01;11.23;;;2.47;;
56239;SDS011;42154;51.992;5.896;2023-02-03T05:43:45;12.88;;;2.63;;
56239;SDS011;42154;51.992;5.896;2023-02-03T05:46:11;9.95;;;2.22;;
56239;SDS011;42154;51.992;5.896;2023-02-03T05:48:37;13.48;;;2.00;;
56239;SDS011;42154;51.992;5.896;2023-02-03T05:51:03;12.13;;;2.50;;
56239;SDS011;42154;51.992;5.896;2023-02-03T05:53:28;7.50;;;1.90;;
56239;SDS011;42154;51.992;5.896;2023-02-03T05:55:54;8.13;;;2.70;;
56239;SDS011;42154;51.992;5.896;2023-02-03T05:58:20;16.13;;;3.42;;
56239;SDS011;42154;51.992;5.896;2023-02-03T06:00:46;11.55;;;2.60;;
56239;SDS011;42154;51.992;5.896;2023-02-03T06:03:12;7.72;;;2.63;;
56239;SDS011;42154;51.992;5.896;2023-02-03T06:05:37;11.30;;;2.70;;
56239;SDS011;42154;51.992;5.896;2023-02-03T06:08:05;11.68;;;2.92;;
56239;SDS011;42154;51.992;5.896;2023-02-03T06:10:32;6.20;;;1.83;;
56239;SDS011;42154;51.992;5.896;2023-02-03T06:12:58;10.25;;;2.83;;
56239;SDS011;42154;51.992;5.896;2023-02-03T06:15:24;11.02;;;2.97;;
56239;SDS011;42154;51.992;5.896;2023-02-03T06:17:50;9.15;;;2.33;;
56239;SDS011;42154;51.992;5.896;2023-02-03T06:20:17;9.82;;;2.20;;
56239;SDS011;42154;51.992;5.896;2023-02-03T06:22:44;13.70;;;2.80;;
56239;SDS011;42154;51.992;5.896;2023-02-03T06:25:10;12.20;;;2.90;;
56239;SDS011;42154;51.992;5.896;2023-02-03T06:27:36;9.88;;;2.72;;
56239;SDS011;42154;51.992;5.896;2023-02-03T06:30:02;12.82;;;3.05;;
56239;SDS011;42154;51.992;5.896;2023-02-03T06:32:28;9.07;;;2.35;;
56239;SDS011;42154;51.992;5.896;2023-02-03T06:34:54;8.40;;;2.45;;
56239;SDS011;42154;51.992;5.896;2023-02-03T06:37:20;10.23;;;2.38;;
56239;SDS011;42154;51.992;5.896;2023-02-03T06:39:45;12.82;;;2.75;;
56239;SDS011;42154;51.992;5.896;2023-02-03T06:42:11;9.60;;;2.38;;
56239;SDS011;42154;51.992;5.896;2023-02-03T06:44:37;17.88;;;3.33;;
56239;SDS011;42154;51.992;5.896;2023-02-03T06:47:02;7.97;;;2.38;;
56239;SDS011;42154;51.992;5.896;2023-02-03T06:49:28;6.70;;;2.15;;
56239;SDS011;42154;51.992;5.896;2023-02-03T06:51:54;10.35;;;2.63;;
56239;SDS011;42154;51.992;5.896;2023-02-03T06:54:20;7.25;;;2.25;;
56239;SDS011;42154;51.992;5.896;2023-02-03T06:56:46;12.63;;;2.70;;
56239;SDS011;42154;51.992;5.896;2023-02-03T06:59:12;8.13;;;2.25;;
56239;SDS011;42154;51.992;5.896;2023-02-03T07:01:38;9.68;;;2.92;;
56239;SDS011;42154;51.992;5.896;2023-02-03T07:04:04;10.95;;;2.67;;
56239;SDS011;42154;51.992;5.896;2023-02-03T07:06:30;14.55;;;3.30;;
56239;SDS011;42154;51.992;5.896;2023-02-03T07:09:01;10.18;;;2.50;;
56239;SDS011;42154;51.992;5.896;2023-02-03T07:11:28;9.77;;;2.72;;
56239;SDS011;42154;51.992;5.896;2023-02-03T07:13:54;8.70;;;2.45;;
56239;SDS011;42154;51.992;5.896;2023-02-03T07:16:20;13.90;;;2.85;;
56239;SDS011;42154;51.992;5.896;2023-02-03T07:18:46;11.35;;;2.70;;
56239;SDS011;42154;51.992;5.896;2023-02-03T07:21:12;9.48;;;2.40;;
56239;SDS011;42154;51.992;5.896;2023-02-03T07:23:39;9.95;;;2.50;;
56239;SDS011;42154;51.992;5.896;2023-02-03T07:26:05;9.90;;;2.65;;
56239;SDS011;42154;51.992;5.896;2023-02-03T07:28:34;7.32;;;2.35;;
56239;SDS011;42154;51.992;5.896;2023-02-03T07:31:01;9.02;;;2.78;;
56239;SDS011;42154;51.992;5.896;2023-02-03T07:33:29;6.95;;;2.25;;
56239;SDS011;42154;51.992;5.896;2023-02-03T07:35:56;13.02;;;3.38;;
56239;SDS011;42154;51.992;5.896;2023-02-03T07:38:23;15.05;;;2.72;;
56239;SDS011;42154;51.992;5.896;2023-02-03T07:40:50;13.20;;;3.17;;
56239;SDS011;42154;51.992;5.896;2023-02-03T07:43:17;13.15;;;2.95;;
56239;SDS011;42154;51.992;5.896;2023-02-03T07:45:43;10.82;;;2.40;;
56239;SDS011;42154;51.992;5.896;2023-02-03T07:48:08;13.32;;;2.78;;
56239;SDS011;42154;51.992;5.896;2023-02-03T07:50:35;9.40;;;2.97;;
56239;SDS011;42154;51.992;5.896;2023-02-03T07:53:01;10.48;;;3.10;;
56239;SDS011;42154;51.992;5.896;2023-02-03T07:55:28;13.10;;;3.50;;
56239;SDS011;42154;51.992;5.896;2023-02-03T07:57:57;9.55;;;2.88;;
56239;SDS011;42154;51.992;5.896;2023-02-03T08:00:23;9.32;;;3.15;;
56239;SDS011;42154;51.992;5.896;2023-02-03T08:02:49;8.68;;;2.65;;
56239;SDS011;42154;51.992;5.896;2023-02-03T08:05:15;9.45;;;2.60;;
56239;SDS011;42154;51.992;5.896;2023-02-03T08:07:42;7.38;;;2.30;;
56239;SDS011;42154;51.992;5.896;2023-02-03T08:10:09;9.27;;;2.83;;
56239;SDS011;42154;51.992;5.896;2023-02-03T08:12:37;9.77;;;2.20;;
56239;SDS011;42154;51.992;5.896;2023-02-03T08:15:03;14.38;;;3.42;;
56239;SDS011;42154;51.992;5.896;2023-02-03T08:17:30;13.68;;;3.28;;
56239;SDS011;42154;51.992;5.896;2023-02-03T08:19:57;13.95;;;2.88;;
56239;SDS011;42154;51.992;5.896;2023-02-03T08:22:24;13.20;;;3.22;;
56239;SDS011;42154;51.992;5.896;2023-02-03T08:24:50;12.98;;;3.00;;
56239;SDS011;42154;51.992;5.896;2023-02-03T08:27:16;7.05;;;2.25;;
56239;SDS011;42154;51.992;5.896;2023-02-03T08:29:43;6.95;;;1.90;;
56239;SDS011;42154;51.992;5.896;2023-02-03T08:32:11;6.68;;;1.90;;
56239;SDS011;42154;51.992;5.896;2023-02-03T08:34:40;8.43;;;2.33;;
56239;SDS011;42154;51.992;5.896;2023-02-03T08:37:07;8.60;;;2.47;;
56239;SDS011;42154;51.992;5.896;2023-02-03T08:39:34;11.35;;;2.65;;
56239;SDS011;42154;51.992;5.896;2023-02-03T08:42:00;7.22;;;2.70;;
56239;SDS011;42154;51.992;5.896;2023-02-03T08:44:28;9.60;;;2.13;;
56239;SDS011;42154;51.992;5.896;2023-02-03T08:46:55;10.85;;;2.97;;
56239;SDS011;42154;51.992;5.896;2023-02-03T08:49:22;10.25;;;2.28;;
56239;SDS011;42154;51.992;5.896;2023-02-03T08:51:49;9.85;;;2.70;;
56239;SDS011;42154;51.992;5.896;2023-02-03T08:54:16;11.07;;;2.78;;
56239;SDS011;42154;51.992;5.896;2023-02-03T08:56:42;11.38;;;2.20;;
56239;SDS011;42154;51.992;5.896;2023-02-03T08:59:08;13.02;;;2.95;;
56239;SDS011;42154;51.992;5.896;2023-02-03T09:01:34;9.00;;;2.08;;
56239;SDS011;42154;51.992;5.896;2023-02-03T09:04:00;9.23;;;2.00;;
56239;SDS011;42154;51.992;5.896;2023-02-03T09:06:28;8.90;;;2.08;;
56239;SDS011;42154;51.992;5.896;2023-02-03T09:08:55;8.07;;;2.10;;
56239;SDS011;42154;51.992;5.896;2023-02-03T09:11:21;8.52;;;1.92;;
56239;SDS011;42154;51.992;5.896;2023-02-03T09:13:47;7.10;;;2.30;;
56239;SDS011;42154;51.992;5.896;2023-02-03T09:16:15;8.48;;;2.75;;
56239;SDS011;42154;51.992;5.896;2023-02-03T09:18:43;13.98;;;3.13;;
56239;SDS011;42154;51.992;5.896;2023-02-03T09:21:10;10.65;;;2.45;;
56239;SDS011;42154;51.992;5.896;2023-02-03T09:23:37;9.02;;;2.20;;
56239;SDS011;42154;51.992;5.896;2023-02-03T09:26:05;11.85;;;2.70;;
56239;SDS011;42154;51.992;5.896;2023-02-03T09:28:32;10.77;;;2.45;;
56239;SDS011;42154;51.992;5.896;2023-02-03T09:31:03;10.65;;;2.97;;
56239;SDS011;42154;51.992;5.896;2023-02-03T09:35:56;11.73;;;2.95;;
56239;SDS011;42154;51.992;5.896;2023-02-03T09:38:22;11.77;;;2.22;;
56239;SDS011;42154;51.992;5.896;2023-02-03T09:46:22;5.57;;;2.33;;
56239;SDS011;42154;51.992;5.896;2023-02-03T09:48:57;7.47;;;2.50;;
56239;SDS011;42154;51.992;5.896;2023-02-03T09:51:38;8.60;;;3.17;;
56239;SDS011;42154;51.992;5.896;2023-02-03T09:54:20;7.75;;;2.08;;
56239;SDS011;42154;51.992;5.896;2023-02-03T09:57:04;11.20;;;2.42;;
56239;SDS011;42154;51.992;5.896;2023-02-03T09:59:37;10.10;;;2.95;;
56239;SDS011;42154;51.992;5.896;2023-02-03T10:05:07;8.13;;;2.70;;
56239;SDS011;42154;51.992;5.896;2023-02-03T10:07:52;6.57;;;2.08;;
56239;SDS011;42154;51.992;5.896;2023-02-03T10:10:32;6.40;;;2.20;;
56239;SDS011;42154;51.992;5.896;2023-02-03T10:13:12;4.47;;;1.63;;
56239;SDS011;42154;51.992;5.896;2023-02-03T10:15:47;11.85;;;2.50;;
56239;SDS011;42154;51.992;5.896;2023-02-03T10:18:38;9.68;;;2.20;;
56239;SDS011;42154;51.992;5.896;2023-02-03T10:21:22;7.75;;;2.20;;
56239;SDS011;42154;51.992;5.896;2023-02-03T10:24:02;7.97;;;2.33;;
56239;SDS011;42154;51.992;5.896;2023-02-03T10:26:41;8.27;;;2.10;;
56239;SDS011;42154;51.992;5.896;2023-02-03T10:29:12;8.00;;;2.30;;
56239;SDS011;42154;51.992;5.896;2023-02-03T10:31:47;6.23;;;2.07;;
56239;SDS011;42154;51.992;5.896;2023-02-03T10:34:14;5.53;;;2.10;;
56239;SDS011;42154;51.992;5.896;2023-02-03T10:36:47;7.03;;;2.00;;
56239;SDS011;42154;51.992;5.896;2023-02-03T10:42:06;8.88;;;2.10;;
56239;SDS011;42154;51.992;5.896;2023-02-03T10:44:35;11.10;;;2.97;;
56239;SDS011;42154;51.992;5.896;2023-02-03T10:47:19;8.25;;;2.47;;
56239;SDS011;42154;51.992;5.896;2023-02-03T10:49:52;6.85;;;2.30;;
56239;SDS011;42154;51.992;5.896;2023-02-03T10:52:24;4.90;;;1.88;;
56239;SDS011;42154;51.992;5.896;2023-02-03T10:54:58;7.10;;;1.95;;
56239;SDS011;42154;51.992;5.896;2023-02-03T10:57:29;12.10;;;2.40;;
56239;SDS011;42154;51.992;5.896;2023-02-03T11:00:19;7.15;;;2.33;;
56239;SDS011;42154;51.992;5.896;2023-02-03T11:08:02;8.70;;;2.40;;
56239;SDS011;42154;51.992;5.896;2023-02-03T11:10:30;5.82;;;1.83;;
56239;SDS011;42154;51.992;5.896;2023-02-03T11:16:00;10.50;;;2.47;;
56239;SDS011;42154;51.992;5.896;2023-02-03T11:21:07;8.50;;;2.15;;
56239;SDS011;42154;51.992;5.896;2023-02-03T11:23:35;7.00;;;1.80;;
56239;SDS011;42154;51.992;5.896;2023-02-03T11:26:09;5.57;;;1.80;;
56239;SDS011;42154;51.992;5.896;2023-02-03T11:28:39;7.95;;;1.90;;
56239;SDS011;42154;51.992;5.896;2023-02-03T11:31:13;7.23;;;2.13;;
56239;SDS011;42154;51.992;5.896;2023-02-03T11:33:48;6.25;;;2.13;;
56239;SDS011;42154;51.992;5.896;2023-02-03T11:36:17;10.23;;;2.20;;
56239;SDS011;42154;51.992;5.896;2023-02-03T11:38:44;11.98;;;3.10;;
56239;SDS011;42154;51.992;5.896;2023-02-03T11:41:13;6.40;;;1.73;;
56239;SDS011;42154;51.992;5.896;2023-02-03T11:43:41;10.02;;;1.75;;
56239;SDS011;42154;51.992;5.896;2023-02-03T11:46:07;10.82;;;2.30;;
56239;SDS011;42154;51.992;5.896;2023-02-03T12:07:52;8.27;;;2.00;;
56239;SDS011;42154;51.992;5.896;2023-02-03T12:23:28;9.60;;;2.10;;
56239;SDS011;42154;51.992;5.896;2023-02-03T12:26:21;8.82;;;2.50;;
56239;SDS011;42154;51.992;5.896;2023-02-03T12:31:46;7.75;;;2.47;;
56239;SDS011;42154;51.992;5.896;2023-02-03T12:35:04;8.82;;;2.53;;
56239;SDS011;42154;51.992;5.896;2023-02-03T12:37:38;12.63;;;2.60;;
56239;SDS011;42154;51.992;5.896;2023-02-03T12:40:28;8.45;;;2.75;;
56239;SDS011;42154;51.992;5.896;2023-02-03T12:45:41;13.60;;;3.85;;
56239;SDS011;42154;51.992;5.896;2023-02-03T12:48:17;12.43;;;3.47;;
56239;SDS011;42154;51.992;5.896;2023-02-03T12:50:48;9.48;;;2.33;;
56239;SDS011;42154;51.992;5.896;2023-02-03T12:53:19;7.45;;;2.53;;
56239;SDS011;42154;51.992;5.896;2023-02-03T12:56:06;10.32;;;2.70;;
56239;SDS011;42154;51.992;5.896;2023-02-03T12:58:44;10.90;;;3.08;;
56239;SDS011;42154;51.992;5.896;2023-02-03T13:04:13;12.52;;;3.55;;
56239;SDS011;42154;51.992;5.896;2023-02-03T13:07:47;15.35;;;4.30;;
56239;SDS011;42154;51.992;5.896;2023-02-03T13:10:00;16.17;;;3.00;;
56239;SDS011;42154;51.992;5.896;2023-02-03T13:12:38;11.93;;;3.45;;
56239;SDS011;42154;51.992;5.896;2023-02-03T13:17:51;20.17;;;3.90;;
56239;SDS011;42154;51.992;5.896;2023-02-03T13:20:39;12.77;;;3.72;;
56239;SDS011;42154;51.992;5.896;2023-02-03T13:23:06;14.23;;;3.97;;
56239;SDS011;42154;51.992;5.896;2023-02-03T13:42:25;23.67;;;3.85;;
56239;SDS011;42154;51.992;5.896;2023-02-03T13:44:56;11.40;;;3.35;;
56239;SDS011;42154;51.992;5.896;2023-02-03T13:47:36;14.20;;;4.22;;
56239;SDS011;42154;51.992;5.896;2023-02-03T13:50:03;20.10;;;3.90;;
56239;SDS011;42154;51.992;5.896;2023-02-03T13:52:43;21.92;;;4.50;;
56239;SDS011;42154;51.992;5.896;2023-02-03T13:55:51;21.70;;;3.97;;
56239;SDS011;42154;51.992;5.896;2023-02-03T13:58:19;17.95;;;4.38;;
56239;SDS011;42154;51.992;5.896;2023-02-03T14:00:57;20.65;;;3.90;;
56239;SDS011;42154;51.992;5.896;2023-02-03T14:05:55;20.42;;;3.95;;
56239;SDS011;42154;51.992;5.896;2023-02-03T14:16:44;17.92;;;4.68;;
56239;SDS011;42154;51.992;5.896;2023-02-03T14:22:06;21.45;;;4.72;;
56239;SDS011;42154;51.992;5.896;2023-02-03T14:24:40;23.45;;;5.68;;
56239;SDS011;42154;51.992;5.896;2023-02-03T14:29:44;23.30;;;4.65;;
56239;SDS011;42154;51.992;5.896;2023-02-03T14:32:29;29.35;;;4.60;;
56239;SDS011;42154;51.992;5.896;2023-02-03T14:35:16;24.10;;;3.92;;
56239;SDS011;42154;51.992;5.896;2023-02-03T14:38:00;22.83;;;5.13;;
56239;SDS011;42154;51.992;5.896;2023-02-03T14:59:48;25.17;;;4.63;;
56239;SDS011;42154;51.992;5.896;2023-02-03T15:02:22;21.27;;;5.00;;
56239;SDS011;42154;51.992;5.896;2023-02-03T15:07:45;19.27;;;3.95;;
56239;SDS011;42154;51.992;5.896;2023-02-03T15:13:23;30.90;;;5.32;;
56239;SDS011;42154;51.992;5.896;2023-02-03T15:15:54;20.67;;;4.28;;
56239;SDS011;42154;51.992;5.896;2023-02-03T15:18:29;32.88;;;5.80;;
56239;SDS011;42154;51.992;5.896;2023-02-03T15:20:57;29.77;;;5.85;;
56239;SDS011;42154;51.992;5.896;2023-02-03T15:23:24;27.50;;;6.65;;
56239;SDS011;42154;51.992;5.896;2023-02-03T15:25:52;32.50;;;6.38;;
56239;SDS011;42154;51.992;5.896;2023-02-03T15:28:21;27.63;;;5.72;;
56239;SDS011;42154;51.992;5.896;2023-02-03T15:30:50;27.73;;;5.80;;
56239;SDS011;42154;51.992;5.896;2023-02-03T15:33:29;24.42;;;5.55;;
56239;SDS011;42154;51.992;5.896;2023-02-03T15:36:00;31.63;;;6.13;;
56239;SDS011;42154;51.992;5.896;2023-02-03T15:38:38;26.55;;;5.43;;
56239;SDS011;42154;51.992;5.896;2023-02-03T15:41:15;33.38;;;5.93;;
56239;SDS011;42154;51.992;5.896;2023-02-03T15:43:46;21.25;;;4.28;;
56239;SDS011;42154;51.992;5.896;2023-02-03T15:46:15;25.73;;;4.97;;
56239;SDS011;42154;51.992;5.896;2023-02-03T15:48:51;24.27;;;5.07;;
56239;SDS011;42154;51.992;5.896;2023-02-03T15:51:22;28.17;;;5.28;;
56239;SDS011;42154;51.992;5.896;2023-02-03T15:53:54;32.67;;;5.95;;
56239;SDS011;42154;51.992;5.896;2023-02-03T15:59:17;26.37;;;5.30;;
56239;SDS011;42154;51.992;5.896;2023-02-03T16:01:45;28.50;;;5.75;;
56239;SDS011;42154;51.992;5.896;2023-02-03T16:04:11;26.70;;;5.18;;
56239;SDS011;42154;51.992;5.896;2023-02-03T16:06:38;29.48;;;6.00;;
56239;SDS011;42154;51.992;5.896;2023-02-03T16:09:51;28.48;;;5.47;;
56239;SDS011;42154;51.992;5.896;2023-02-03T16:14:32;27.40;;;5.55;;
56239;SDS011;42154;51.992;5.896;2023-02-03T16:16:59;25.23;;;5.47;;
56239;SDS011;42154;51.992;5.896;2023-02-03T16:19:25;23.23;;;4.55;;
56239;SDS011;42154;51.992;5.896;2023-02-03T16:21:54;21.50;;;4.70;;
56239;SDS011;42154;51.992;5.896;2023-02-03T16:33:03;30.60;;;7.70;;
56239;SDS011;42154;51.992;5.896;2023-02-03T16:35:56;29.50;;;6.68;;
56239;SDS011;42154;51.992;5.896;2023-02-03T16:41:32;24.95;;;6.35;;
56239;SDS011;42154;51.992;5.896;2023-02-03T16:44:16;27.05;;;5.85;;
56239;SDS011;42154;51.992;5.896;2023-02-03T16:47:01;23.88;;;6.57;;
56239;SDS011;42154;51.992;5.896;2023-02-03T16:49:46;20.83;;;4.95;;
56239;SDS011;42154;51.992;5.896;2023-02-03T16:52:31;20.42;;;5.22;;
56239;SDS011;42154;51.992;5.896;2023-02-03T16:54:57;19.77;;;4.82;;
56239;SDS011;42154;51.992;5.896;2023-02-03T16:57:23;20.83;;;5.03;;
56239;SDS011;42154;51.992;5.896;2023-02-03T16:59:49;26.95;;;4.97;;
56239;SDS011;42154;51.992;5.896;2023-02-03T17:02:15;26.20;;;6.18;;
56239;SDS011;42154;51.992;5.896;2023-02-03T17:04:41;25.05;;;5.65;;
56239;SDS011;42154;51.992;5.896;2023-02-03T17:07:07;27.13;;;5.40;;
56239;SDS011;42154;51.992;5.896;2023-02-03T17:09:33;18.15;;;4.50;;
56239;SDS011;42154;51.992;5.896;2023-02-03T17:12:00;25.70;;;5.25;;
56239;SDS011;42154;51.992;5.896;2023-02-03T17:14:26;25.65;;;5.28;;
56239;SDS011;42154;51.992;5.896;2023-02-03T17:16:52;24.00;;;6.65;;
56239;SDS011;42154;51.992;5.896;2023-02-03T17:19:18;23.63;;;5.00;;
56239;SDS011;42154;51.992;5.896;2023-02-03T17:21:44;21.13;;;4.85;;
56239;SDS011;42154;51.992;5.896;2023-02-03T17:24:11;29.83;;;5.90;;
56239;SDS011;42154;51.992;5.896;2023-02-03T17:26:37;26.05;;;5.82;;
56239;SDS011;42154;51.992;5.896;2023-02-03T17:29:03;27.88;;;6.18;;
56239;SDS011;42154;51.992;5.896;2023-02-03T17:31:30;23.77;;;6.28;;
56239;SDS011;42154;51.992;5.896;2023-02-03T17:33:56;22.40;;;4.88;;
56239;SDS011;42154;51.992;5.896;2023-02-03T17:36:22;30.25;;;6.25;;
56239;SDS011;42154;51.992;5.896;2023-02-03T17:38:49;25.25;;;5.47;;
56239;SDS011;42154;51.992;5.896;2023-02-03T17:41:19;25.27;;;6.10;;
56239;SDS011;42154;51.992;5.896;2023-02-03T17:43:46;30.70;;;6.28;;